createdAt,value
2023-05-05T04:25:24.857Z,8.36
2023-05-05T04:26:24.041Z,8.37
2023-05-05T04:27:25.133Z,8.39
2023-05-05T04:28:23.984Z,8.40
2023-05-05T04:29:24.032Z,8.42
2023-05-05T04:30:23.951Z,8.42
2023-05-05T04:31:24.110Z,8.42
2023-05-05T04:32:24.103Z,8.43
2023-05-05T04:33:24.026Z,8.43
2023-05-05T04:34:23.921Z,8.43
2023-05-05T04:35:23.995Z,8.43
2023-05-05T04:36:23.900Z,8.43
2023-05-05T04:37:23.906Z,8.45
2023-05-05T04:38:23.934Z,8.45
2023-05-05T04:39:23.884Z,8.45
2023-05-05T04:40:24.118Z,8.45
2023-05-05T04:41:23.856Z,8.46
2023-05-05T04:42:23.846Z,8.47
2023-05-05T04:43:23.844Z,8.47
2023-05-05T04:44:23.826Z,8.49
2023-05-05T04:45:23.846Z,8.52
2023-05-05T04:46:23.864Z,8.54
2023-05-05T04:47:23.915Z,8.54
2023-05-05T04:48:23.782Z,8.55
2023-05-05T04:49:23.821Z,8.60
2023-05-05T04:50:23.760Z,8.60
2023-05-05T04:51:23.738Z,8.63
2023-05-05T04:52:23.741Z,8.65
2023-05-05T04:53:23.748Z,8.68
2023-05-05T04:54:23.726Z,8.70
2023-05-05T04:55:23.713Z,8.73
2023-05-05T04:56:23.697Z,8.75
2023-05-05T04:57:23.693Z,8.76
2023-05-05T04:58:23.681Z,8.79
2023-05-05T04:59:23.663Z,8.82
2023-05-05T05:00:23.653Z,8.83
2023-05-05T05:01:23.743Z,8.89
2023-05-05T05:02:23.757Z,8.91
2023-05-05T05:03:23.705Z,8.96
2023-05-05T05:04:23.598Z,8.98
2023-05-05T05:05:23.646Z,9.01
2023-05-05T05:06:23.570Z,9.04
2023-05-05T05:07:23.622Z,9.06
2023-05-05T05:08:23.615Z,9.08
2023-05-05T05:09:23.622Z,9.13
2023-05-05T05:10:23.544Z,9.16
2023-05-05T05:11:23.553Z,9.19
2023-05-05T05:12:23.509Z,9.23
2023-05-05T05:13:23.617Z,9.30
2023-05-05T05:14:23.489Z,9.32
2023-05-05T05:15:23.527Z,9.38
2023-05-05T05:16:23.512Z,9.41
2023-05-05T05:17:23.488Z,9.50
2023-05-05T05:18:23.445Z,9.53
2023-05-05T05:19:23.472Z,9.62
2023-05-05T05:20:23.481Z,9.70
2023-05-05T05:21:23.441Z,9.78
2023-05-05T05:22:23.406Z,9.86
2023-05-05T05:23:23.417Z,9.93
2023-05-05T05:24:23.406Z,9.98
2023-05-05T05:25:23.369Z,10.04
2023-05-05T05:26:23.402Z,10.07
2023-05-05T05:27:23.370Z,10.11
2023-05-05T05:28:23.389Z,10.14
2023-05-05T05:29:23.315Z,10.17
2023-05-05T05:30:23.323Z,10.22
2023-05-05T05:31:23.386Z,10.26
2023-05-05T05:32:23.294Z,10.29
2023-05-05T05:33:23.291Z,10.35
2023-05-05T05:34:23.272Z,10.38
2023-05-05T05:35:23.278Z,10.42
2023-05-05T05:36:23.249Z,10.44
2023-05-05T05:37:23.250Z,10.47
2023-05-05T05:38:23.287Z,10.52
2023-05-05T05:39:23.212Z,10.58
2023-05-05T05:40:23.228Z,10.68
2023-05-05T05:41:23.240Z,10.75
2023-05-05T05:42:23.193Z,10.78
2023-05-05T05:43:23.195Z,10.84
2023-05-05T05:44:23.177Z,10.91
2023-05-05T05:45:23.148Z,11.06
2023-05-05T05:46:23.186Z,11.21
2023-05-05T05:47:23.177Z,11.38
2023-05-05T05:48:23.119Z,11.63
2023-05-05T05:49:23.119Z,11.90
2023-05-05T05:50:23.102Z,12.16
2023-05-05T05:51:23.108Z,12.37
2023-05-05T05:52:23.126Z,12.54
2023-05-05T05:53:23.075Z,12.63
2023-05-05T05:54:23.100Z,12.59
2023-05-05T05:55:23.065Z,12.59
2023-05-05T05:56:23.070Z,12.67
2023-05-05T05:57:23.092Z,12.84
2023-05-05T05:58:23.042Z,13.01
2023-05-05T05:59:23.015Z,13.19
2023-05-05T06:00:22.992Z,13.47
2023-05-05T06:01:22.993Z,13.75
2023-05-05T06:02:23.033Z,13.83
2023-05-05T06:03:23.106Z,13.90
2023-05-05T06:04:23.038Z,13.87
2023-05-05T06:05:22.961Z,13.81
2023-05-05T06:06:22.927Z,13.73
2023-05-05T06:07:22.937Z,13.62
2023-05-05T06:08:24.967Z,13.51
2023-05-05T06:09:22.907Z,13.43
2023-05-05T06:10:30.324Z,13.35
2023-05-05T06:11:22.903Z,13.27
2023-05-05T06:12:22.851Z,13.22
2023-05-05T06:13:22.894Z,13.14
2023-05-05T06:14:22.898Z,13.14
2023-05-05T06:15:22.845Z,13.10
2023-05-05T06:16:22.858Z,13.06
2023-05-05T06:17:22.824Z,13.01
2023-05-05T06:18:22.829Z,12.98
2023-05-05T06:19:22.777Z,12.95
2023-05-05T06:20:22.773Z,12.94
2023-05-05T06:21:22.764Z,12.94
2023-05-05T06:22:22.742Z,13.03
2023-05-05T06:23:22.784Z,13.03
2023-05-05T06:24:22.740Z,13.06
2023-05-05T06:25:22.754Z,13.04
2023-05-05T06:26:22.732Z,13.06
2023-05-05T06:27:22.744Z,13.07
2023-05-05T06:28:22.705Z,13.09
2023-05-05T06:29:22.723Z,13.10
2023-05-05T06:30:22.678Z,13.10
2023-05-05T06:31:22.695Z,13.22
2023-05-05T06:32:22.699Z,13.22
2023-05-05T06:33:22.645Z,13.31
2023-05-05T06:34:22.614Z,13.55
2023-05-05T06:35:22.670Z,13.80
2023-05-05T06:36:22.662Z,13.99
2023-05-05T06:37:22.589Z,14.11
2023-05-05T06:38:22.576Z,14.11
2023-05-05T06:39:22.588Z,14.08
2023-05-05T06:40:22.582Z,14.06
2023-05-05T06:41:22.597Z,14.02
2023-05-05T06:42:22.536Z,14.04
2023-05-05T06:43:22.547Z,14.01
2023-05-05T06:44:22.616Z,13.99
2023-05-05T06:45:22.568Z,13.98
2023-05-05T06:46:22.530Z,13.98
2023-05-05T06:47:22.481Z,13.99
2023-05-05T06:48:22.502Z,13.99
2023-05-05T06:49:22.473Z,14.01
2023-05-05T06:50:22.473Z,14.01
2023-05-05T06:51:22.433Z,13.98
2023-05-05T06:52:22.440Z,13.94
2023-05-05T06:53:22.429Z,13.93
2023-05-05T06:54:22.444Z,13.91
2023-05-05T06:55:22.469Z,13.88
2023-05-05T06:56:22.416Z,13.90
2023-05-05T06:57:22.363Z,13.87
2023-05-05T06:58:22.361Z,13.87
2023-05-05T06:59:22.336Z,13.87
2023-05-05T07:00:22.367Z,13.83
2023-05-05T07:01:22.405Z,13.73
2023-05-05T07:02:23.512Z,13.54
2023-05-05T07:03:22.363Z,13.24
2023-05-05T07:04:22.285Z,12.99
2023-05-05T07:05:22.332Z,12.80
2023-05-05T07:06:22.276Z,12.63
2023-05-05T07:07:22.288Z,12.46
2023-05-05T07:08:22.288Z,12.36
2023-05-05T07:09:22.250Z,12.30
2023-05-05T07:10:22.228Z,12.26
2023-05-05T07:11:22.847Z,12.22
2023-05-05T07:12:22.227Z,12.19
2023-05-05T07:13:22.231Z,12.19
2023-05-05T07:14:24.351Z,12.16
2023-05-05T07:15:28.578Z,12.15
2023-05-05T07:16:22.302Z,12.18
2023-05-05T07:17:22.239Z,12.16
2023-05-05T07:18:22.197Z,12.15
2023-05-05T07:19:22.137Z,12.15
2023-05-05T07:20:22.212Z,12.15
2023-05-05T07:21:22.126Z,12.12
2023-05-05T07:22:22.168Z,12.13
2023-05-05T07:23:22.104Z,12.11
2023-05-05T07:24:22.120Z,12.07
2023-05-05T07:25:22.114Z,12.08
2023-05-05T07:26:22.073Z,12.07
2023-05-05T07:27:22.089Z,12.05
2023-05-05T07:28:22.086Z,12.05
2023-05-05T07:29:22.052Z,12.05
2023-05-05T07:30:22.222Z,12.08
2023-05-05T07:31:22.033Z,12.07
2023-05-05T07:32:22.095Z,12.11
2023-05-05T07:33:22.004Z,12.11
2023-05-05T07:34:22.012Z,12.08
2023-05-05T07:35:21.967Z,12.11
2023-05-05T07:36:21.951Z,12.07
2023-05-05T07:37:21.994Z,12.04
2023-05-05T07:38:21.926Z,12.01
2023-05-05T07:39:21.916Z,12.01
2023-05-05T07:40:21.919Z,12.01
2023-05-05T07:41:21.910Z,12.01
2023-05-05T07:42:21.906Z,12.00
2023-05-05T07:43:21.918Z,11.98
2023-05-05T07:44:21.888Z,12.00
2023-05-05T07:45:21.849Z,11.96
2023-05-05T07:46:21.912Z,11.97
2023-05-05T07:47:22.035Z,12.00
2023-05-05T07:48:21.838Z,12.01
2023-05-05T07:49:21.856Z,12.01
2023-05-05T07:50:21.817Z,12.03
2023-05-05T07:51:21.812Z,12.03
2023-05-05T07:52:33.203Z,12.03
2023-05-05T07:53:21.800Z,12.03
2023-05-05T07:54:21.768Z,12.03
2023-05-05T07:55:21.799Z,12.05
2023-05-05T07:56:21.967Z,12.05
2023-05-05T07:57:21.761Z,12.08
2023-05-05T07:58:21.755Z,12.11
2023-05-05T07:59:21.718Z,12.12
2023-05-05T08:00:21.779Z,12.07
2023-05-05T08:01:21.726Z,12.11
2023-05-05T08:02:21.730Z,12.13
2023-05-05T08:03:21.814Z,12.12
2023-05-05T08:04:22.398Z,12.15
2023-05-05T08:05:21.656Z,12.16
2023-05-05T08:06:21.633Z,12.18
2023-05-05T08:07:21.673Z,12.19
2023-05-05T08:08:21.636Z,12.21
2023-05-05T08:09:21.601Z,12.21
2023-05-05T08:10:21.644Z,12.22
2023-05-05T08:11:21.638Z,12.23
2023-05-05T08:12:21.671Z,12.25
2023-05-05T08:13:21.581Z,12.30
2023-05-05T08:14:21.577Z,12.33
2023-05-05T08:15:21.545Z,12.34
2023-05-05T08:16:21.616Z,12.37
2023-05-05T08:17:21.546Z,12.41
2023-05-05T08:18:21.522Z,12.43
2023-05-05T08:19:28.894Z,12.46
2023-05-05T08:20:21.484Z,12.49
2023-05-05T08:21:21.502Z,12.54
2023-05-05T08:22:21.473Z,12.54
2023-05-05T08:23:21.526Z,12.54
2023-05-05T08:24:21.492Z,12.54
2023-05-05T08:25:21.442Z,12.56
2023-05-05T08:26:21.438Z,12.58
2023-05-05T08:27:21.419Z,12.59
2023-05-05T08:28:21.417Z,12.61
2023-05-05T08:29:21.627Z,12.66
2023-05-05T08:30:21.383Z,12.67
2023-05-05T08:31:21.401Z,12.70
2023-05-05T08:32:21.383Z,12.71
2023-05-05T08:33:21.355Z,12.74
2023-05-05T08:34:21.326Z,12.74
2023-05-05T08:35:21.317Z,12.79
2023-05-05T08:36:21.308Z,12.81
2023-05-05T08:37:21.297Z,12.84
2023-05-05T08:38:21.357Z,12.84
2023-05-05T08:39:21.275Z,12.87
2023-05-05T08:40:21.432Z,12.88
2023-05-05T08:41:21.252Z,12.89
2023-05-05T08:42:35.662Z,12.88
2023-05-05T08:43:21.230Z,12.89
2023-05-05T08:44:21.237Z,12.91
2023-05-05T08:45:21.207Z,12.94
2023-05-05T08:46:21.237Z,12.96
2023-05-05T08:47:21.187Z,12.98
2023-05-05T08:48:21.273Z,12.99
2023-05-05T08:49:21.165Z,13.04
2023-05-05T08:50:21.172Z,13.10
2023-05-05T08:51:21.135Z,13.16
2023-05-05T08:52:21.133Z,13.21
2023-05-05T08:53:21.123Z,13.24
2023-05-05T08:54:21.098Z,13.29
2023-05-05T08:55:21.193Z,13.35
2023-05-05T08:56:21.073Z,13.36
2023-05-05T08:57:21.084Z,13.38
2023-05-05T08:58:21.060Z,13.38
2023-05-05T08:59:21.035Z,13.38
2023-05-05T09:00:21.050Z,13.38
2023-05-05T09:01:21.082Z,13.43
2023-05-05T09:02:21.043Z,13.44
2023-05-05T09:03:21.029Z,13.47
2023-05-05T09:04:21.059Z,13.46
2023-05-05T09:05:20.980Z,13.48
2023-05-05T09:06:20.982Z,13.50
2023-05-05T09:07:21.028Z,13.51
2023-05-05T09:08:20.986Z,13.51
2023-05-05T09:09:20.945Z,13.54
2023-05-05T09:10:20.989Z,13.55
2023-05-05T09:11:20.939Z,13.61
2023-05-05T09:12:20.930Z,13.65
2023-05-05T09:13:20.928Z,13.68
2023-05-05T09:14:20.891Z,13.72
2023-05-05T09:15:20.874Z,13.75
2023-05-05T09:16:20.905Z,13.80
2023-05-05T09:17:20.864Z,13.83
2023-05-05T09:18:20.866Z,13.83
2023-05-05T09:19:20.835Z,13.84
2023-05-05T09:20:20.844Z,13.88
2023-05-05T09:21:20.815Z,13.90
2023-05-05T09:22:20.808Z,13.94
2023-05-05T09:23:20.849Z,13.94
2023-05-05T09:24:20.780Z,13.99
2023-05-05T09:25:20.772Z,14.02
2023-05-05T09:26:20.758Z,14.02
2023-05-05T09:27:20.743Z,14.02
2023-05-05T09:28:20.750Z,14.02
2023-05-05T09:29:20.724Z,14.02
2023-05-05T09:30:20.719Z,14.05
2023-05-05T09:31:20.769Z,14.08
2023-05-05T09:32:20.687Z,14.08
2023-05-05T09:33:20.683Z,14.11
2023-05-05T09:34:20.689Z,14.13
2023-05-05T09:35:20.658Z,14.17
2023-05-05T09:36:20.642Z,14.23
2023-05-05T09:37:20.633Z,14.26
2023-05-05T09:38:20.648Z,14.27
2023-05-05T09:39:20.652Z,14.27
2023-05-05T09:40:20.786Z,14.31
2023-05-05T09:41:20.589Z,14.34
2023-05-05T09:42:20.596Z,14.36
2023-05-05T09:43:20.574Z,14.36
2023-05-05T09:44:20.573Z,14.38
2023-05-05T09:45:20.578Z,14.41
2023-05-05T09:46:20.628Z,14.38
2023-05-05T09:47:29.328Z,14.41
2023-05-05T09:48:20.602Z,14.42
2023-05-05T09:49:20.500Z,14.42
2023-05-05T09:50:20.627Z,14.41
2023-05-05T09:51:20.540Z,14.44
2023-05-05T09:52:20.486Z,14.45
2023-05-05T09:53:20.469Z,14.49
2023-05-05T09:54:20.462Z,14.56
2023-05-05T09:55:20.440Z,14.59
2023-05-05T09:56:20.461Z,14.64
2023-05-05T09:57:20.438Z,14.71
2023-05-05T09:58:20.501Z,14.74
2023-05-05T09:59:20.408Z,14.74
2023-05-05T10:00:20.540Z,14.78
2023-05-05T10:01:20.392Z,14.80
2023-05-05T10:02:20.386Z,14.82
2023-05-05T10:03:20.361Z,14.83
2023-05-05T10:04:20.351Z,14.79
2023-05-05T10:05:20.392Z,14.79
2023-05-05T10:06:20.328Z,14.78
2023-05-05T10:07:20.331Z,14.82
2023-05-05T10:08:20.327Z,14.83
2023-05-05T10:09:20.303Z,14.90
2023-05-05T10:10:20.295Z,14.95
2023-05-05T10:11:20.277Z,15.04
2023-05-05T10:12:20.274Z,15.05
2023-05-05T10:13:20.328Z,15.07
2023-05-05T10:14:20.256Z,15.11
2023-05-05T10:15:20.218Z,15.11
2023-05-05T10:16:20.269Z,15.09
2023-05-05T10:17:20.213Z,15.09
2023-05-05T10:18:20.266Z,15.05
2023-05-05T10:19:20.183Z,15.05
2023-05-05T10:20:20.203Z,15.04
2023-05-05T10:21:20.209Z,15.04
2023-05-05T10:22:20.156Z,15.05
2023-05-05T10:23:20.143Z,15.07
2023-05-05T10:24:20.132Z,15.05
2023-05-05T10:25:20.125Z,15.09
2023-05-05T10:26:20.135Z,15.13
2023-05-05T10:27:20.114Z,15.15
2023-05-05T10:28:20.105Z,15.19
2023-05-05T10:29:20.073Z,15.22
2023-05-05T10:30:20.093Z,15.23
2023-05-05T10:31:25.061Z,15.30
2023-05-05T10:32:47.439Z,15.31
2023-05-05T10:34:20.080Z,15.33
2023-05-05T10:35:20.042Z,15.34
2023-05-05T10:36:20.045Z,15.35
2023-05-05T10:37:20.027Z,15.38
2023-05-05T10:38:19.977Z,15.43
2023-05-05T10:39:20.131Z,15.44
2023-05-05T10:40:20.003Z,15.46
2023-05-05T10:41:19.953Z,15.51
2023-05-05T10:42:19.948Z,15.52
2023-05-05T10:43:20.836Z,15.55
2023-05-05T10:44:19.953Z,15.56
2023-05-05T10:45:19.963Z,15.56
2023-05-05T10:46:19.979Z,15.55
2023-05-05T10:47:19.906Z,15.56
2023-05-05T10:48:19.911Z,15.58
2023-05-05T10:49:19.885Z,15.59
2023-05-05T10:50:19.858Z,15.67
2023-05-05T10:51:31.125Z,15.71
2023-05-05T10:52:19.841Z,15.71
2023-05-05T10:53:19.828Z,15.70
2023-05-05T10:54:19.874Z,15.68
2023-05-05T10:55:19.824Z,15.68
2023-05-05T10:56:19.836Z,15.64
2023-05-05T10:57:19.805Z,15.64
2023-05-05T10:58:19.813Z,15.70
2023-05-05T10:59:19.784Z,15.76
2023-05-05T11:00:19.812Z,15.80
2023-05-05T11:01:19.862Z,15.85
2023-05-05T11:02:19.777Z,15.91
2023-05-05T11:03:19.797Z,15.93
2023-05-05T11:04:19.712Z,15.92
2023-05-05T11:05:19.707Z,15.91
2023-05-05T11:06:19.690Z,15.88
2023-05-05T11:07:19.682Z,15.96
2023-05-05T11:08:19.702Z,15.99
2023-05-05T11:09:19.672Z,16.04
2023-05-05T11:10:19.649Z,16.04
2023-05-05T11:11:19.636Z,16.13
2023-05-05T11:12:19.622Z,16.22
2023-05-05T11:13:19.716Z,16.30
2023-05-05T11:14:19.645Z,16.37
2023-05-05T11:15:19.600Z,16.48
2023-05-05T11:16:19.655Z,16.50
2023-05-05T11:17:19.587Z,16.50
2023-05-05T11:18:19.562Z,16.48
2023-05-05T11:19:19.575Z,16.48
2023-05-05T11:20:19.558Z,16.51
2023-05-05T11:21:19.565Z,16.57
2023-05-05T11:22:19.525Z,16.63
2023-05-05T11:23:19.531Z,16.70
2023-05-05T11:24:19.516Z,16.72
2023-05-05T11:25:19.518Z,16.72
2023-05-05T11:26:19.484Z,16.70
2023-05-05T11:27:19.488Z,16.70
2023-05-05T11:28:19.455Z,16.69
2023-05-05T11:29:19.477Z,16.73
2023-05-05T11:30:19.450Z,16.77
2023-05-05T11:31:19.751Z,16.80
2023-05-05T11:32:19.427Z,16.75
2023-05-05T11:33:19.411Z,16.80
2023-05-05T11:34:19.395Z,16.72
2023-05-05T11:35:19.404Z,16.72
2023-05-05T11:36:19.386Z,16.69
2023-05-05T11:37:19.384Z,16.63
2023-05-05T11:38:19.373Z,16.67
2023-05-05T11:39:19.430Z,16.69
2023-05-05T11:40:19.357Z,16.65
2023-05-05T11:41:19.462Z,16.54
2023-05-05T11:42:19.327Z,16.50
2023-05-05T11:43:19.315Z,16.50
2023-05-05T11:44:19.512Z,16.52
2023-05-05T11:45:19.289Z,16.55
2023-05-05T11:46:19.349Z,16.60
2023-05-05T11:47:19.273Z,16.67
2023-05-05T11:48:19.250Z,16.70
2023-05-05T11:49:19.244Z,16.77
2023-05-05T11:50:19.252Z,16.85
2023-05-05T11:51:19.256Z,16.95
2023-05-05T11:52:19.227Z,17.00
2023-05-05T11:53:19.193Z,16.99
2023-05-05T11:54:19.193Z,16.87
2023-05-05T11:55:19.183Z,16.96
2023-05-05T11:56:19.409Z,17.02
2023-05-05T11:57:19.181Z,17.02
2023-05-05T11:58:19.226Z,17.02
2023-05-05T11:59:19.228Z,16.99
2023-05-05T12:00:19.125Z,16.95
2023-05-05T12:01:19.133Z,16.92
2023-05-05T12:02:19.201Z,16.96
2023-05-05T12:03:19.255Z,16.98
2023-05-05T12:04:19.168Z,16.95
2023-05-05T12:05:19.084Z,16.95
2023-05-05T12:06:19.085Z,16.98
2023-05-05T12:07:19.096Z,17.00
2023-05-05T12:08:19.071Z,16.96
2023-05-05T12:09:19.045Z,16.90
2023-05-05T12:10:19.022Z,16.80
2023-05-05T12:11:19.000Z,16.80
2023-05-05T12:12:19.023Z,16.77
2023-05-05T12:13:19.237Z,16.73
2023-05-05T12:14:19.018Z,16.70
2023-05-05T12:15:18.991Z,16.67
2023-05-05T12:16:18.980Z,16.72
2023-05-05T12:17:18.959Z,16.75
2023-05-05T12:18:18.938Z,16.90
2023-05-05T12:19:18.925Z,17.03
2023-05-05T12:20:18.929Z,17.10
2023-05-05T12:21:18.900Z,17.07
2023-05-05T12:22:18.901Z,17.02
2023-05-05T12:23:18.898Z,16.98
2023-05-05T12:24:18.865Z,16.95
2023-05-05T12:25:18.889Z,16.95
2023-05-05T12:26:18.866Z,17.00
2023-05-05T12:27:18.886Z,16.96
2023-05-05T12:28:18.839Z,16.98
2023-05-05T12:29:18.956Z,16.95
2023-05-05T12:30:18.971Z,16.90
2023-05-05T12:31:18.866Z,16.90
2023-05-05T12:32:18.811Z,16.87
2023-05-05T12:33:18.779Z,16.87
2023-05-05T12:34:18.788Z,16.85
2023-05-05T12:35:18.767Z,16.92
2023-05-05T12:36:18.775Z,17.05
2023-05-05T12:37:18.752Z,17.14
2023-05-05T12:38:18.752Z,17.18
2023-05-05T12:39:18.729Z,17.24
2023-05-05T12:40:18.772Z,17.22
2023-05-05T12:41:18.817Z,17.21
2023-05-05T12:42:18.823Z,17.24
2023-05-05T12:43:18.691Z,17.24
2023-05-05T12:44:18.680Z,17.20
2023-05-05T12:45:18.935Z,17.20
2023-05-05T12:46:21.089Z,17.22
2023-05-05T13:07:26.468Z,17.84
2023-05-05T13:08:25.089Z,17.79
2023-05-05T13:09:25.105Z,17.66
2023-05-05T13:10:24.960Z,17.62
2023-05-05T13:11:24.941Z,17.55
2023-05-05T13:12:25.162Z,17.51
2023-05-05T13:13:25.086Z,17.47
2023-05-05T13:14:24.922Z,17.43
2023-05-05T13:15:24.881Z,17.36
2023-05-05T13:16:25.086Z,17.33
2023-05-05T13:17:24.869Z,17.30
2023-05-05T13:18:24.840Z,17.22
2023-05-05T13:19:24.813Z,17.21
2023-05-05T13:20:24.866Z,17.18
2023-05-05T13:21:24.830Z,17.09
2023-05-05T13:22:24.827Z,17.10
2023-05-05T13:23:25.858Z,17.14
2023-05-05T13:24:34.902Z,17.15
2023-05-05T13:25:24.743Z,17.14
2023-05-05T13:26:24.734Z,17.07
2023-05-05T13:27:24.712Z,17.03
2023-05-05T13:28:24.707Z,17.02
2023-05-05T13:29:29.522Z,17.03
2023-05-05T13:30:24.688Z,17.00
2023-05-05T13:31:24.756Z,16.99
2023-05-05T13:32:24.723Z,17.00
2023-05-05T13:33:24.643Z,16.99
2023-05-05T13:34:24.896Z,16.95
2023-05-05T13:35:24.648Z,16.95
2023-05-05T13:36:24.619Z,16.91
2023-05-05T13:37:24.614Z,16.92
2023-05-05T13:38:24.605Z,16.92
2023-05-05T13:39:24.596Z,16.92
2023-05-05T13:40:25.925Z,16.90
2023-05-05T13:41:24.818Z,16.88
2023-05-05T13:42:24.606Z,16.85
2023-05-05T13:43:24.568Z,16.81
2023-05-05T13:44:24.539Z,16.75
2023-05-05T13:45:24.622Z,16.70
2023-05-05T13:46:24.550Z,16.67
2023-05-05T13:47:24.608Z,16.66
2023-05-05T13:48:24.511Z,16.62
2023-05-05T13:49:24.498Z,16.60
2023-05-05T13:50:24.468Z,16.60
2023-05-05T13:51:24.500Z,16.59
2023-05-05T13:52:24.446Z,16.57
2023-05-05T13:53:24.442Z,16.54
2023-05-05T13:54:24.464Z,16.54
2023-05-05T13:55:24.424Z,16.51
2023-05-05T13:56:24.454Z,16.52
2023-05-05T13:57:24.406Z,16.48
2023-05-05T13:58:24.398Z,16.50
2023-05-05T13:59:24.438Z,16.48
2023-05-05T14:00:24.382Z,16.48
2023-05-05T14:01:24.436Z,16.48
2023-05-05T14:02:24.391Z,16.48
2023-05-05T14:03:24.351Z,16.47
2023-05-05T14:04:24.422Z,16.42
2023-05-05T14:05:24.309Z,16.42
2023-05-05T14:06:24.312Z,16.40
2023-05-05T14:07:24.292Z,16.36
2023-05-05T14:08:24.286Z,16.33
2023-05-05T14:09:24.329Z,16.30
2023-05-05T14:10:24.253Z,16.26
2023-05-05T14:11:24.299Z,16.18
2023-05-05T14:12:24.251Z,16.16
2023-05-05T14:13:24.259Z,16.10
2023-05-05T14:14:24.236Z,16.06
2023-05-05T14:15:24.253Z,16.01
2023-05-05T14:16:24.245Z,15.95
2023-05-05T14:17:24.948Z,15.84
2023-05-05T14:18:24.367Z,15.77
2023-05-05T14:19:24.314Z,15.70
2023-05-05T14:20:24.188Z,15.58
2023-05-05T14:21:24.209Z,15.30
2023-05-05T14:22:24.152Z,14.95
2023-05-05T14:23:24.154Z,14.60
2023-05-05T14:24:24.164Z,14.29
2023-05-05T14:25:24.122Z,13.86
2023-05-05T14:26:24.120Z,13.59
2023-05-05T14:27:24.145Z,13.36
2023-05-05T14:28:24.098Z,13.22
2023-05-05T14:29:24.339Z,13.13
2023-05-05T14:30:24.052Z,13.06
2023-05-05T14:31:24.094Z,12.96
2023-05-05T14:32:24.044Z,12.94
2023-05-05T14:33:24.036Z,12.91
2023-05-05T14:34:24.039Z,12.91
2023-05-05T14:35:24.009Z,12.89
2023-05-05T14:36:24.009Z,12.89
2023-05-05T14:37:23.989Z,12.92
2023-05-05T14:38:23.974Z,12.94
2023-05-05T14:39:23.952Z,12.96
2023-05-05T14:40:23.949Z,13.03
2023-05-05T14:41:23.932Z,13.04
2023-05-05T14:42:23.937Z,13.09
2023-05-05T14:43:23.990Z,13.13
2023-05-05T14:44:23.950Z,13.16
2023-05-05T14:45:23.898Z,13.19
2023-05-05T14:46:23.942Z,13.19
2023-05-05T14:47:23.925Z,13.24
2023-05-05T14:48:23.869Z,13.25
2023-05-05T14:49:23.850Z,13.24
2023-05-05T14:50:23.842Z,13.21
2023-05-05T14:51:23.977Z,13.21
2023-05-05T14:52:23.821Z,13.17
2023-05-05T14:53:23.823Z,13.12
2023-05-05T14:54:28.448Z,13.10
2023-05-05T14:55:23.800Z,13.10
2023-05-05T14:56:23.770Z,13.09
2023-05-05T14:57:23.770Z,13.10
2023-05-05T14:58:23.779Z,13.06
2023-05-05T14:59:23.751Z,13.03
2023-05-05T15:00:23.730Z,13.03
2023-05-05T15:01:23.786Z,13.01
2023-05-05T15:02:23.836Z,13.01
2023-05-05T15:03:23.761Z,12.99
2023-05-05T15:04:23.727Z,12.99
2023-05-05T15:05:23.687Z,12.95
2023-05-05T15:06:23.675Z,12.92
2023-05-05T15:07:23.653Z,12.94
2023-05-05T15:08:23.678Z,12.92
2023-05-05T15:09:23.920Z,12.91
2023-05-05T15:10:23.751Z,12.91
2023-05-05T15:11:23.631Z,12.91
2023-05-05T15:12:23.630Z,12.91
2023-05-05T15:13:23.601Z,12.89
2023-05-05T15:14:23.657Z,12.87
2023-05-05T15:15:23.575Z,12.87
2023-05-05T15:16:23.616Z,12.85
2023-05-05T15:17:23.577Z,12.87
2023-05-05T15:18:23.561Z,12.85
2023-05-05T15:19:23.584Z,12.87
2023-05-05T15:20:23.516Z,12.85
2023-05-05T15:21:23.539Z,12.84
2023-05-05T15:22:23.510Z,12.84
2023-05-05T15:23:23.516Z,12.84
2023-05-05T15:24:23.459Z,12.85
2023-05-05T15:25:23.493Z,12.85
2023-05-05T15:26:23.491Z,12.85
2023-05-05T15:27:23.441Z,12.88
2023-05-05T15:28:23.423Z,12.89
2023-05-05T15:29:23.434Z,12.92
2023-05-05T15:30:23.419Z,12.91
2023-05-05T15:31:23.394Z,12.92
2023-05-05T15:32:23.462Z,12.92
2023-05-05T15:33:23.393Z,12.92
2023-05-05T15:34:23.356Z,12.94
2023-05-05T15:35:23.345Z,12.95
2023-05-05T15:36:23.351Z,12.96
2023-05-05T15:37:23.320Z,12.96
2023-05-05T15:38:23.443Z,12.98
2023-05-05T15:39:23.328Z,12.96
2023-05-05T15:40:23.290Z,12.92
2023-05-05T15:41:23.283Z,12.92
2023-05-05T15:42:23.262Z,12.89
2023-05-05T15:43:23.289Z,12.88
2023-05-05T15:44:23.260Z,12.89
2023-05-05T15:45:23.320Z,12.91
2023-05-05T15:46:23.243Z,12.92
2023-05-05T15:47:23.217Z,12.92
2023-05-05T15:48:23.203Z,12.94
2023-05-05T15:49:23.237Z,12.95
2023-05-05T15:50:23.178Z,12.98
2023-05-05T15:51:23.174Z,12.98
2023-05-05T15:52:23.167Z,12.99
2023-05-05T15:53:23.146Z,13.03
2023-05-05T15:54:23.127Z,13.03
2023-05-05T15:55:23.166Z,13.03
2023-05-05T15:56:23.124Z,13.04
2023-05-05T15:57:23.090Z,13.06
2023-05-05T15:58:23.117Z,13.07
2023-05-05T15:59:23.083Z,13.07
2023-05-05T16:00:23.100Z,13.06
2023-05-05T16:01:23.097Z,13.04
2023-05-05T16:02:23.058Z,13.04
2023-05-05T16:03:23.132Z,13.03
2023-05-05T16:04:23.021Z,13.03
2023-05-05T16:05:23.361Z,13.03
2023-05-05T16:06:23.016Z,13.03
2023-05-05T16:07:22.983Z,12.99
2023-05-05T16:08:22.996Z,12.99
2023-05-05T16:09:22.976Z,12.99
2023-05-05T16:10:22.947Z,12.99
2023-05-05T16:11:23.050Z,12.99
2023-05-05T16:12:22.981Z,12.99
2023-05-05T16:13:22.932Z,12.98
2023-05-05T16:14:22.906Z,13.01
2023-05-05T16:15:22.950Z,13.01
2023-05-05T16:16:23.283Z,13.03
2023-05-05T16:17:22.962Z,13.03
2023-05-05T16:18:22.864Z,13.03
2023-05-05T16:19:23.211Z,13.01
2023-05-05T16:20:22.861Z,13.01
2023-05-05T16:21:22.883Z,13.01
2023-05-05T16:22:22.904Z,12.98
2023-05-05T16:23:22.800Z,12.98
2023-05-05T16:24:22.792Z,12.99
2023-05-05T16:25:22.793Z,12.99
2023-05-05T16:26:22.781Z,13.01
2023-05-05T16:27:22.830Z,13.03
2023-05-05T16:28:22.775Z,13.01
2023-05-05T16:29:22.736Z,13.03
2023-05-05T16:30:22.726Z,13.06
2023-05-05T16:31:22.762Z,13.06
2023-05-05T16:32:22.858Z,13.06
2023-05-05T16:33:22.736Z,13.04
2023-05-05T16:34:22.709Z,13.06
2023-05-05T16:35:22.708Z,13.04
2023-05-05T16:36:22.781Z,13.04
2023-05-05T16:37:22.702Z,13.03
2023-05-05T16:38:22.666Z,13.03
2023-05-05T16:39:22.688Z,12.99
2023-05-05T16:40:22.620Z,12.99
2023-05-05T16:41:22.672Z,13.01
2023-05-05T16:42:22.614Z,13.01
2023-05-05T16:43:22.608Z,13.04
2023-05-05T16:44:22.574Z,13.04
2023-05-05T16:45:22.641Z,13.04
2023-05-05T16:46:22.659Z,13.03
2023-05-05T16:47:22.572Z,13.03
2023-05-05T16:48:22.539Z,13.03
2023-05-05T16:49:22.700Z,13.01
2023-05-05T16:50:22.547Z,12.99
2023-05-05T16:51:22.499Z,12.98
2023-05-05T16:52:22.542Z,12.96
2023-05-05T16:53:22.477Z,12.96
2023-05-05T16:54:22.461Z,12.96
2023-05-05T16:55:22.454Z,12.95
2023-05-05T16:56:22.437Z,12.95
2023-05-05T16:57:22.477Z,12.95
2023-05-05T16:58:22.510Z,12.94
2023-05-05T16:59:22.488Z,12.94
2023-05-05T17:00:22.405Z,12.94
2023-05-05T17:01:22.476Z,12.94
2023-05-05T17:02:22.393Z,12.94
2023-05-05T17:03:22.387Z,12.92
2023-05-05T17:04:22.370Z,12.94
2023-05-05T17:05:22.385Z,12.95
2023-05-05T17:06:22.383Z,12.92
2023-05-05T17:07:22.332Z,12.94
2023-05-05T17:08:22.350Z,12.92
2023-05-05T17:09:22.312Z,12.92
2023-05-05T17:10:22.357Z,12.91
2023-05-05T17:11:22.349Z,12.92
2023-05-05T17:12:22.318Z,12.92
2023-05-05T17:13:22.808Z,12.92
2023-05-05T17:14:22.304Z,12.95
2023-05-05T17:15:22.328Z,12.94
2023-05-05T17:16:22.304Z,12.95
2023-05-05T17:17:22.284Z,12.94
2023-05-05T17:18:22.226Z,12.94
2023-05-05T17:19:22.182Z,12.94
2023-05-05T17:20:22.172Z,12.94
2023-05-05T17:21:22.164Z,12.94
2023-05-05T17:22:22.166Z,12.94
2023-05-05T17:23:22.149Z,12.95
2023-05-05T17:24:22.151Z,12.95
2023-05-05T17:25:22.113Z,12.96
2023-05-05T17:26:22.116Z,12.98
2023-05-05T17:27:22.132Z,12.95
2023-05-05T17:28:22.092Z,12.96
2023-05-05T17:29:22.070Z,12.95
2023-05-05T17:30:22.099Z,12.95
2023-05-05T17:31:22.099Z,12.95
2023-05-05T17:32:22.042Z,12.95
2023-05-05T17:33:22.040Z,12.95
2023-05-05T17:34:22.033Z,12.94
2023-05-05T17:35:22.021Z,12.92
2023-05-05T17:36:22.008Z,12.91
2023-05-05T17:37:21.991Z,12.91
2023-05-05T17:38:21.979Z,12.92
2023-05-05T17:39:21.963Z,12.92
2023-05-05T17:40:21.964Z,12.91